Time;durP1;ratioP1;P1;durP2;ratioP2;P2;SDS_P1;SDS_P2;PMS_P1;PMS_P2;Temp;Humidity;BMP_temperature;BMP_pressure;BME280_temperature;BME280_humidity;BME280_pressure;Samples;Min_cycle;Max_cycle;Signal;HPM_P1;HPM_P2
2023/01/28 00:01:54;;;;;;;9.98;9.48;;;2.00;99.90;;;;;;4246985;28;20241;-81
2023/01/28 00:04:14;;;;;;;10.13;9.57;;;2.00;99.90;;;;;;4246636;28;20042;-81
2023/01/28 00:06:34;;;;;;;11.15;10.23;;;1.90;99.90;;;;;;4236423;28;20046;-81
2023/01/28 00:08:54;;;;;;;11.73;11.23;;;1.90;99.90;;;;;;4247087;28;20227;-81
2023/01/28 00:11:15;;;;;;;12.18;11.55;;;1.90;99.90;;;;;;4245511;28;20392;-81
2023/01/28 00:13:35;;;;;;;10.38;9.95;;;1.90;99.90;;;;;;4240636;28;20038;-80
2023/01/28 00:15:56;;;;;;;10.43;10.02;;;1.90;99.90;;;;;;4240793;28;20043;-81
2023/01/28 00:18:16;;;;;;;9.93;9.63;;;1.90;99.90;;;;;;4248847;28;20369;-81
2023/01/28 00:20:37;;;;;;;11.32;10.70;;;1.90;99.90;;;;;;4238915;28;20047;-80
2023/01/28 00:22:56;;;;;;;8.27;7.93;;;1.90;99.90;;;;;;4246631;28;20390;-81
2023/01/28 00:25:16;;;;;;;10.25;9.85;;;1.90;99.90;;;;;;4227791;28;20047;-81
2023/01/28 00:27:36;;;;;;;9.98;9.27;;;1.90;99.90;;;;;;4247644;28;20047;-81
2023/01/28 00:29:56;;;;;;;9.18;8.88;;;1.90;99.90;;;;;;4240685;28;20445;-80
2023/01/28 00:32:16;;;;;;;9.90;9.55;;;1.90;99.90;;;;;;4240787;28;20046;-81
2023/01/28 00:34:36;;;;;;;8.73;8.63;;;1.90;99.90;;;;;;4233321;28;20051;-80
2023/01/28 00:36:56;;;;;;;10.40;9.95;;;2.00;99.90;;;;;;4239721;28;20050;-81
2023/01/28 00:39:16;;;;;;;9.10;8.80;;;2.00;99.90;;;;;;4239879;28;20063;-81
2023/01/28 00:41:36;;;;;;;10.73;10.32;;;1.90;99.90;;;;;;4249881;28;20124;-81
2023/01/28 00:43:56;;;;;;;9.88;9.38;;;1.90;99.90;;;;;;4248042;28;20038;-81
2023/01/28 00:46:18;;;;;;;8.98;8.43;;;1.90;99.90;;;;;;4248585;28;20080;-81
2023/01/28 00:48:39;;;;;;;9.65;9.45;;;1.90;99.90;;;;;;4251941;28;20081;-80
2023/01/28 00:50:59;;;;;;;9.75;9.32;;;1.90;99.90;;;;;;4248111;28;20080;-81
2023/01/28 00:53:19;;;;;;;9.30;9.00;;;1.90;99.90;;;;;;4240902;28;20101;-81
2023/01/28 00:55:40;;;;;;;10.20;9.38;;;1.90;99.90;;;;;;4250239;28;20054;-81
2023/01/28 00:57:59;;;;;;;10.18;9.55;;;1.90;99.90;;;;;;4245889;28;20066;-81
2023/01/28 01:00:24;;;;;;;10.25;9.93;;;1.80;99.90;;;;;;4234403;28;20088;-81
2023/01/28 01:02:44;;;;;;;9.68;9.25;;;1.80;99.90;;;;;;4240287;28;20054;-81
2023/01/28 01:05:05;;;;;;;8.48;8.13;;;1.80;99.90;;;;;;4246493;28;20051;-81
2023/01/28 01:07:40;;;;;;;9.05;8.63;;;1.70;99.90;;;;;;4244847;28;20257;-80
2023/01/28 01:10:01;;;;;;;8.32;8.23;;;1.80;99.90;;;;;;4242171;28;20051;-81
2023/01/28 01:12:21;;;;;;;9.98;9.57;;;1.80;99.90;;;;;;4238170;28;20104;-81
2023/01/28 01:14:41;;;;;;;8.90;8.63;;;1.80;99.90;;;;;;4238897;28;20084;-81
2023/01/28 01:17:01;;;;;;;8.68;8.48;;;1.80;99.90;;;;;;4239324;28;20047;-81
2023/01/28 01:19:21;;;;;;;9.65;9.35;;;1.80;99.90;;;;;;4245525;28;20111;-81
2023/01/28 01:21:41;;;;;;;9.85;9.45;;;1.80;99.90;;;;;;4232900;28;20102;-81
2023/01/28 01:24:01;;;;;;;9.45;9.02;;;1.80;99.90;;;;;;4246406;28;20115;-81
2023/01/28 01:26:22;;;;;;;8.80;8.60;;;1.80;99.90;;;;;;4245559;28;20373;-81
2023/01/28 01:28:42;;;;;;;9.65;9.35;;;1.80;99.90;;;;;;4244818;28;20042;-81
2023/01/28 01:31:05;;;;;;;9.15;8.63;;;1.80;99.90;;;;;;4246860;28;20054;-80
2023/01/28 01:33:26;;;;;;;9.75;9.52;;;1.80;99.90;;;;;;4231967;28;20295;-81
2023/01/28 01:35:53;;;;;;;8.35;8.10;;;1.80;99.90;;;;;;4239400;28;20058;-81
2023/01/28 01:38:13;;;;;;;9.57;9.07;;;1.70;99.90;;;;;;4243888;28;20084;-80
2023/01/28 01:40:34;;;;;;;9.40;9.00;;;1.70;99.90;;;;;;4235351;28;20085;-81
2023/01/28 01:42:54;;;;;;;9.10;8.32;;;1.70;99.90;;;;;;4247757;27;20035;-81
2023/01/28 01:45:17;;;;;;;9.05;8.68;;;1.70;99.90;;;;;;4247992;28;20053;-81
2023/01/28 01:47:56;;;;;;;;;;;1.70;99.90;;;;;;4250654;28;20081;-81
2023/01/28 01:50:28;;;;;;;7.75;7.43;;;1.60;99.90;;;;;;4246292;28;20250;-81
2023/01/28 01:52:51;;;;;;;8.52;8.10;;;1.60;99.90;;;;;;4250629;28;20070;-81
2023/01/28 01:55:15;;;;;;;8.93;8.63;;;1.60;99.90;;;;;;4245372;28;20124;-81
2023/01/28 01:57:37;;;;;;;9.38;9.07;;;1.60;99.90;;;;;;4248536;28;20265;-81
2023/01/28 02:00:04;;;;;;;8.25;7.95;;;1.60;99.90;;;;;;4235738;28;20081;-81
2023/01/28 02:02:24;;;;;;;9.52;9.32;;;1.60;99.90;;;;;;4236847;28;20073;-81
2023/01/28 02:04:45;;;;;;;8.63;8.38;;;1.60;99.90;;;;;;4248078;28;20073;-81
2023/01/28 02:07:07;;;;;;;7.68;7.38;;;1.60;99.90;;;;;;4249411;28;20142;-81
2023/01/28 02:09:30;;;;;;;8.48;8.38;;;1.60;99.90;;;;;;4245447;28;20034;-81
2023/01/28 02:12:01;;;;;;;8.15;8.00;;;1.60;99.90;;;;;;4245257;28;20043;-81
2023/01/28 02:14:24;;;;;;;8.95;8.43;;;1.50;99.90;;;;;;4247924;28;20078;-81
2023/01/28 02:16:50;;;;;;;10.15;9.68;;;1.50;99.90;;;;;;4234288;28;20046;-81
2023/01/28 02:19:11;;;;;;;11.43;10.75;;;1.60;99.90;;;;;;4246442;28;20058;-81
2023/01/28 02:21:46;;;;;;;10.63;10.02;;;1.70;99.90;;;;;;4239747;28;20066;-81
2023/01/28 02:24:45;;;;;;;9.95;9.65;;;1.60;99.90;;;;;;4246861;28;20050;-81
2023/01/28 02:27:31;;;;;;;10.82;10.60;;;1.70;99.90;;;;;;4224412;28;20098;-81
2023/01/28 02:30:13;;;;;;;11.65;11.05;;;1.60;99.90;;;;;;4246170;28;20235;-81
2023/01/28 02:32:54;;;;;;;9.73;9.50;;;1.60;99.90;;;;;;4247742;28;20142;-81
2023/01/28 02:35:23;;;;;;;9.80;9.43;;;1.50;99.90;;;;;;4245738;28;20080;-81
2023/01/28 02:38:04;;;;;;;9.45;9.05;;;1.60;99.90;;;;;;4245994;28;20083;-81
2023/01/28 02:40:29;;;;;;;9.32;8.93;;;1.60;99.90;;;;;;4246362;28;20041;-81
2023/01/28 02:42:48;;;;;;;10.23;9.85;;;1.50;99.90;;;;;;4246387;28;20046;-81
2023/01/28 02:47:56;;;;;;;8.63;8.43;;;1.50;99.90;;;;;;4232457;28;20078;-80
2023/01/28 02:48:11;;;;;;;9.38;8.98;;;1.50;99.90;;;;;;4245959;28;20042;-81
2023/01/28 02:50:44;;;;;;;9.57;9.18;;;1.50;99.90;;;;;;4248878;28;20042;-81
2023/01/28 02:56:12;;;;;;;9.18;8.98;;;1.60;99.90;;;;;;4244923;27;20042;-81
2023/01/28 02:58:43;;;;;;;9.77;9.32;;;1.60;99.90;;;;;;4230152;28;20059;-81
2023/01/28 03:01:13;;;;;;;12.02;11.63;;;1.70;99.90;;;;;;4234383;28;20079;-81
2023/01/28 03:04:00;;;;;;;8.80;8.23;;;1.60;99.90;;;;;;4248962;28;20050;-81
2023/01/28 03:06:25;;;;;;;8.57;8.35;;;1.70;99.90;;;;;;4231771;28;20038;-81
2023/01/28 03:38:47;;;;;;;8.50;8.20;;;1.70;99.90;;;;;;4249884;28;20105;-81
2023/01/28 03:41:09;;;;;;;9.07;8.65;;;1.60;99.90;;;;;;4248694;28;20264;-81
2023/01/28 03:43:30;;;;;;;7.40;7.30;;;1.60;99.90;;;;;;4247467;28;20070;-81
2023/01/28 03:45:51;;;;;;;8.68;8.35;;;1.60;99.90;;;;;;4248416;28;20329;-80
2023/01/28 03:48:14;;;;;;;8.70;8.50;;;1.60;99.90;;;;;;4250474;28;20365;-81
2023/01/28 03:50:33;;;;;;;9.05;8.75;;;1.60;99.90;;;;;;4238042;28;20346;-81
2023/01/28 03:52:53;;;;;;;9.07;8.82;;;1.60;99.90;;;;;;4237324;28;20066;-81
2023/01/28 03:55:13;;;;;;;9.63;9.20;;;1.70;99.90;;;;;;4237158;28;20047;-81
2023/01/28 03:57:34;;;;;;;8.98;8.77;;;1.70;99.90;;;;;;4249351;28;20037;-81
2023/01/28 03:59:54;;;;;;;9.40;9.20;;;1.60;99.90;;;;;;4238557;28;20047;-81
2023/01/28 04:02:14;;;;;;;8.63;8.43;;;1.60;99.90;;;;;;4238536;28;20089;-81
2023/01/28 04:04:34;;;;;;;8.80;8.70;;;1.60;99.90;;;;;;4234358;28;20070;-81
2023/01/28 04:06:54;;;;;;;8.32;8.23;;;1.60;99.90;;;;;;4245318;28;20049;-81
2023/01/28 04:09:14;;;;;;;8.65;8.45;;;1.60;99.90;;;;;;4250195;28;20102;-81
2023/01/28 04:11:35;;;;;;;7.40;7.20;;;1.50;99.90;;;;;;4234917;28;20055;-81
2023/01/28 04:13:54;;;;;;;7.80;7.70;;;1.60;99.90;;;;;;4250678;28;20348;-81
2023/01/28 04:16:16;;;;;;;9.75;9.43;;;1.60;99.90;;;;;;4240551;28;20081;-81
2023/01/28 04:18:36;;;;;;;8.98;8.55;;;1.70;99.90;;;;;;4243311;28;20035;-81
2023/01/28 04:20:56;;;;;;;8.45;8.25;;;1.60;99.90;;;;;;4251468;28;20088;-81
2023/01/28 04:23:16;;;;;;;14.60;8.65;;;1.60;99.90;;;;;;4248676;28;20362;-81
2023/01/28 04:25:36;;;;;;;8.27;8.07;;;1.60;99.90;;;;;;4240474;28;20103;-80
2023/01/28 04:27:56;;;;;;;8.15;7.85;;;1.60;99.90;;;;;;4243907;28;20403;-81
2023/01/28 04:30:17;;;;;;;8.90;8.60;;;1.70;99.90;;;;;;4231177;28;20369;-81
2023/01/28 04:32:37;;;;;;;9.38;9.07;;;1.60;99.90;;;;;;4239343;28;20046;-81
2023/01/28 04:34:57;;;;;;;8.80;8.50;;;1.60;99.90;;;;;;4238355;28;20038;-81
2023/01/28 04:37:17;;;;;;;8.45;8.15;;;1.70;99.90;;;;;;4248685;28;20085;-80
2023/01/28 04:39:36;;;;;;;8.73;8.52;;;1.70;99.90;;;;;;4249891;28;20045;-81
2023/01/28 04:41:56;;;;;;;11.23;8.88;;;1.70;99.90;;;;;;4241374;28;20046;-81
2023/01/28 04:44:16;;;;;;;7.30;7.13;;;1.70;99.90;;;;;;4234172;28;20105;-81
2023/01/28 04:46:36;;;;;;;9.60;9.07;;;1.60;99.90;;;;;;4238468;28;20089;-81
2023/01/28 04:48:56;;;;;;;10.07;9.77;;;1.60;99.90;;;;;;4232676;28;20039;-81
2023/01/28 04:51:16;;;;;;;8.73;8.45;;;1.60;99.90;;;;;;4236871;28;20255;-81
2023/01/28 04:53:36;;;;;;;8.38;8.20;;;1.60;99.90;;;;;;4247456;28;20234;-81
2023/01/28 04:55:56;;;;;;;10.55;10.15;;;1.60;99.90;;;;;;4251750;28;20085;-81
2023/01/28 04:58:16;;;;;;;7.97;7.78;;;1.60;99.90;;;;;;4248705;28;20046;-81
2023/01/28 05:00:36;;;;;;;9.00;8.80;;;1.60;99.90;;;;;;4233163;28;20047;-81
2023/01/28 05:02:56;;;;;;;8.80;8.60;;;1.60;99.90;;;;;;4243198;28;20088;-81
2023/01/28 05:05:16;;;;;;;9.32;8.90;;;1.60;99.90;;;;;;4235936;28;20055;-81
2023/01/28 05:07:36;;;;;;;8.63;8.43;;;1.70;99.90;;;;;;4246547;28;20265;-81
2023/01/28 05:09:56;;;;;;;8.38;8.18;;;1.60;99.90;;;;;;4243837;28;20046;-81
2023/01/28 05:12:16;;;;;;;10.00;9.07;;;1.60;99.90;;;;;;4246299;28;20463;-81
2023/01/28 05:14:37;;;;;;;9.55;9.13;;;1.60;99.90;;;;;;4244916;28;20038;-81
2023/01/28 05:16:56;;;;;;;8.82;8.70;;;1.60;99.90;;;;;;4240568;28;20131;-81
2023/01/28 05:19:16;;;;;;;9.55;9.27;;;1.60;99.90;;;;;;4245449;28;20242;-81
2023/01/28 05:21:37;;;;;;;10.52;10.23;;;1.50;99.90;;;;;;4246832;28;20051;-81
2023/01/28 05:23:56;;;;;;;10.05;9.75;;;1.50;99.90;;;;;;4246973;28;20050;-81
2023/01/28 05:26:17;;;;;;;9.07;8.73;;;1.50;99.90;;;;;;4238984;28;20093;-81
2023/01/28 05:28:37;;;;;;;8.20;8.05;;;1.50;99.90;;;;;;4249501;28;20102;-81
2023/01/28 05:31:01;;;;;;;9.25;8.85;;;1.40;99.90;;;;;;4247459;28;20085;-81
2023/01/28 05:33:21;;;;;;;9.45;9.15;;;1.50;99.90;;;;;;4231318;28;20051;-81
2023/01/28 05:35:42;;;;;;;27.90;11.32;;;1.40;99.90;;;;;;4239541;28;20149;-81
2023/01/28 05:38:02;;;;;;;9.32;8.95;;;1.50;99.90;;;;;;4248722;28;20076;-81
2023/01/28 05:40:23;;;;;;;7.75;7.60;;;1.50;99.90;;;;;;4238564;28;20128;-81
2023/01/28 05:42:43;;;;;;;8.27;8.18;;;1.40;99.90;;;;;;4246832;28;20088;-81
2023/01/28 05:45:04;;;;;;;9.93;9.73;;;1.40;99.90;;;;;;4235878;28;20045;-81
2023/01/28 05:47:23;;;;;;;7.97;7.80;;;1.40;99.90;;;;;;4237071;28;20081;-81
2023/01/28 05:49:43;;;;;;;9.15;8.85;;;1.40;99.90;;;;;;4239831;28;20084;-80
2023/01/28 05:52:03;;;;;;;8.38;8.15;;;1.40;99.90;;;;;;4249055;28;20042;-81
2023/01/28 05:54:23;;;;;;;7.55;7.45;;;1.40;99.90;;;;;;4239025;28;20238;-80
2023/01/28 05:56:43;;;;;;;9.48;9.07;;;1.40;99.90;;;;;;4246597;28;20050;-81
2023/01/28 05:59:04;;;;;;;8.85;8.65;;;1.50;99.90;;;;;;4233166;28;20074;-81
2023/01/28 06:01:23;;;;;;;9.85;9.57;;;1.40;99.90;;;;;;4245130;28;20291;-81
2023/01/28 06:03:43;;;;;;;8.02;7.93;;;1.50;99.90;;;;;;4232016;28;20042;-81
2023/01/28 06:06:03;;;;;;;8.10;7.75;;;1.50;99.90;;;;;;4238820;28;20047;-81
2023/01/28 06:08:23;;;;;;;9.98;9.73;;;1.50;99.90;;;;;;4248737;28;20046;-81
2023/01/28 06:10:43;;;;;;;9.73;9.43;;;1.50;99.90;;;;;;4247215;28;20039;-81
2023/01/28 06:13:03;;;;;;;7.63;7.43;;;1.50;99.90;;;;;;4248708;28;20038;-81
2023/01/28 06:15:23;;;;;;;6.90;6.80;;;1.50;99.90;;;;;;4238072;28;20051;-81
2023/01/28 06:17:43;;;;;;;9.32;9.02;;;1.50;99.90;;;;;;4250171;28;20286;-81
2023/01/28 06:20:03;;;;;;;8.45;8.35;;;1.50;99.90;;;;;;4239918;28;20051;-81
2023/01/28 06:22:23;;;;;;;9.18;8.70;;;1.50;99.90;;;;;;4245447;28;20050;-81
2023/01/28 06:24:43;;;;;;;8.65;8.35;;;1.50;99.90;;;;;;4239579;28;20045;-85
2023/01/28 06:27:03;;;;;;;8.60;8.30;;;1.60;99.90;;;;;;4238437;28;20056;-85
2023/01/28 06:29:23;;;;;;;8.52;8.32;;;1.50;99.90;;;;;;4239245;28;20117;-85
2023/01/28 06:31:43;;;;;;;9.27;8.93;;;1.50;99.90;;;;;;4246583;28;20055;-85
2023/01/28 06:34:03;;;;;;;9.38;9.18;;;1.50;99.90;;;;;;4237388;28;20147;-85
2023/01/28 06:36:23;;;;;;;8.38;8.02;;;1.50;99.90;;;;;;4234395;28;20065;-85
2023/01/28 06:38:43;;;;;;;9.82;9.50;;;1.60;99.90;;;;;;4252635;28;20050;-85
2023/01/28 06:41:03;;;;;;;8.55;8.35;;;1.60;99.90;;;;;;4243163;28;20081;-85
2023/01/28 06:43:27;;;;;;;9.02;8.68;;;1.50;99.90;;;;;;4242377;28;20370;-85
2023/01/28 06:45:47;;;;;;;9.90;9.25;;;1.60;99.90;;;;;;4249139;28;20077;-85
2023/01/28 06:48:07;;;;;;;8.07;7.93;;;1.60;99.90;;;;;;4241467;28;20104;-85
2023/01/28 06:50:28;;;;;;;7.88;7.78;;;1.60;99.90;;;;;;4232322;28;20232;-85
2023/01/28 06:52:48;;;;;;;6.80;6.68;;;1.60;99.90;;;;;;4248423;28;20408;-85
2023/01/28 06:55:08;;;;;;;8.02;7.80;;;1.60;99.90;;;;;;4240444;28;20050;-85
2023/01/28 06:57:28;;;;;;;8.77;8.48;;;1.60;99.90;;;;;;4232037;28;20077;-85
2023/01/28 06:59:48;;;;;;;9.30;8.88;;;1.60;99.90;;;;;;4246820;28;20042;-85
2023/01/28 07:02:10;;;;;;;11.10;10.60;;;1.60;99.90;;;;;;4237040;28;20074;-85
2023/01/28 07:04:30;;;;;;;13.05;12.15;;;1.60;99.90;;;;;;4234992;28;20055;-85
2023/01/28 07:06:50;;;;;;;10.32;9.73;;;1.60;99.90;;;;;;4241475;28;20047;-85
2023/01/28 07:09:10;;;;;;;11.50;10.68;;;1.60;99.90;;;;;;4251063;28;20174;-85
2023/01/28 07:11:31;;;;;;;9.05;8.75;;;1.60;99.90;;;;;;4237137;28;20386;-86
2023/01/28 07:13:50;;;;;;;10.20;9.90;;;1.60;99.90;;;;;;4242465;28;20042;-85
2023/01/28 07:16:11;;;;;;;10.50;10.02;;;1.60;99.90;;;;;;4241336;28;20054;-85
2023/01/28 07:18:30;;;;;;;9.43;9.23;;;1.60;99.90;;;;;;4236245;28;20274;-86
2023/01/28 07:20:50;;;;;;;8.18;7.97;;;1.60;99.90;;;;;;4240489;28;20047;-85
2023/01/28 07:23:11;;;;;;;10.07;9.70;;;1.60;99.90;;;;;;4249118;28;20234;-85
2023/01/28 07:25:31;;;;;;;10.32;10.00;;;1.70;99.90;;;;;;4251945;28;20152;-85
2023/01/28 07:27:52;;;;;;;9.75;9.35;;;1.70;99.90;;;;;;4247159;28;20039;-85
2023/01/28 07:30:13;;;;;;;11.52;11.02;;;1.70;99.90;;;;;;4233498;28;20074;-85
2023/01/28 07:32:33;;;;;;;10.82;10.43;;;1.70;99.90;;;;;;4247544;28;20085;-85
2023/01/28 07:34:53;;;;;;;11.23;10.82;;;1.80;99.90;;;;;;4248425;28;20043;-85
2023/01/28 07:37:14;;;;;;;11.52;11.02;;;1.80;99.90;;;;;;4250227;28;20231;-85
2023/01/28 07:39:33;;;;;;;10.40;10.20;;;1.80;99.90;;;;;;4250385;28;20238;-85
2023/01/28 07:41:54;;;;;;;11.93;11.63;;;1.80;99.90;;;;;;4236519;28;20066;-85
2023/01/28 07:44:13;;;;;;;12.13;11.63;;;1.80;99.90;;;;;;4237410;28;20042;-85
2023/01/28 07:46:33;;;;;;;9.90;9.32;;;1.80;99.90;;;;;;4250245;28;20047;-85
2023/01/28 07:48:53;;;;;;;13.32;12.65;;;1.80;99.90;;;;;;4247701;28;20357;-85
2023/01/28 07:51:13;;;;;;;10.55;10.20;;;1.80;99.90;;;;;;4233741;28;20063;-85
2023/01/28 07:53:33;;;;;;;11.82;11.32;;;1.80;99.90;;;;;;4245423;28;20054;-85
2023/01/28 07:55:59;;;;;;;11.20;10.85;;;1.90;99.90;;;;;;4244661;28;20054;-85
2023/01/28 07:58:19;;;;;;;11.50;11.10;;;1.90;99.90;;;;;;4238182;28;20438;-85
2023/01/28 08:00:39;;;;;;;10.82;10.52;;;1.90;99.90;;;;;;4245445;28;20127;-85
2023/01/28 08:03:02;;;;;;;11.82;11.00;;;1.90;99.90;;;;;;4247839;28;20085;-85
2023/01/28 08:05:22;;;;;;;11.82;11.38;;;1.90;99.90;;;;;;4229954;28;20088;-85
2023/01/28 08:07:42;;;;;;;12.82;12.27;;;1.90;99.90;;;;;;4244487;28;20069;-85
2023/01/28 08:10:02;;;;;;;12.18;11.57;;;2.00;99.90;;;;;;4246122;28;20050;-85
2023/01/28 08:12:23;;;;;;;12.30;11.77;;;2.00;99.90;;;;;;4231955;28;20133;-85
2023/01/28 08:14:43;;;;;;;11.85;11.48;;;2.00;99.90;;;;;;4240626;28;20087;-85
2023/01/28 08:17:03;;;;;;;10.82;10.40;;;2.10;99.90;;;;;;4243609;28;20050;-85
2023/01/28 08:19:22;;;;;;;11.80;11.30;;;2.10;99.90;;;;;;4235501;28;20246;-85
2023/01/28 08:21:42;;;;;;;12.02;11.57;;;2.10;99.90;;;;;;4242795;28;20235;-84
2023/01/28 08:24:02;;;;;;;12.00;11.38;;;2.20;99.90;;;;;;4239648;28;20046;-84
2023/01/28 08:26:22;;;;;;;11.35;10.95;;;2.20;99.90;;;;;;4250104;28;20042;-84
2023/01/28 08:28:42;;;;;;;13.02;12.40;;;2.20;99.90;;;;;;4244701;28;20286;-85
2023/01/28 08:31:02;;;;;;;13.85;13.15;;;2.30;99.90;;;;;;4238702;28;20385;-85
2023/01/28 08:33:22;;;;;;;13.88;13.02;;;2.40;99.90;;;;;;4236486;28;20089;-86
2023/01/28 08:35:42;;;;;;;11.25;10.75;;;2.50;99.90;;;;;;4233608;28;20054;-85
2023/01/28 08:38:04;;;;;;;12.57;11.88;;;2.50;99.90;;;;;;4240095;28;20066;-85
2023/01/28 08:40:24;;;;;;;12.48;11.88;;;2.50;99.90;;;;;;4250132;28;20045;-85
2023/01/28 08:42:48;;;;;;;10.80;10.43;;;2.40;99.90;;;;;;4248952;28;20047;-85
2023/01/28 08:45:08;;;;;;;11.30;10.65;;;2.40;99.90;;;;;;4240955;28;20066;-85
2023/01/28 08:47:28;;;;;;;9.73;9.50;;;2.40;99.90;;;;;;4245434;28;20047;-86
2023/01/28 08:49:48;;;;;;;10.90;10.38;;;2.40;99.90;;;;;;4248804;28;20277;-86
2023/01/28 08:52:09;;;;;;;11.02;10.73;;;2.50;99.90;;;;;;4235239;28;20377;-86
2023/01/28 08:54:29;;;;;;;10.57;10.15;;;2.60;99.90;;;;;;4239860;28;20043;-86
2023/01/28 08:56:50;;;;;;;12.30;11.50;;;2.70;99.90;;;;;;4234345;28;20600;-86
2023/01/28 08:59:10;;;;;;;11.15;10.70;;;2.80;99.90;;;;;;4249201;28;20231;-86
2023/01/28 09:01:31;;;;;;;10.70;10.35;;;3.00;99.90;;;;;;4235517;28;20082;-86
2023/01/28 09:03:51;;;;;;;12.07;11.38;;;2.90;99.90;;;;;;4239711;28;20258;-85
2023/01/28 09:06:11;;;;;;;13.80;13.05;;;2.90;99.90;;;;;;4235707;28;20081;-86
2023/01/28 09:08:31;;;;;;;13.90;13.20;;;2.90;99.90;;;;;;4233754;28;20038;-86
2023/01/28 09:10:55;;;;;;;12.35;11.75;;;3.00;99.90;;;;;;4246227;28;20050;-86
2023/01/28 09:13:15;;;;;;;14.27;13.55;;;2.90;99.90;;;;;;4232258;28;20065;-86
2023/01/28 09:15:36;;;;;;;9.68;9.38;;;2.90;99.90;;;;;;4246543;28;20042;-85
2023/01/28 09:17:58;;;;;;;11.35;10.82;;;3.00;99.90;;;;;;4246661;28;20269;-86
2023/01/28 09:20:18;;;;;;;11.50;11.10;;;2.90;99.90;;;;;;4242902;28;20135;-86
2023/01/28 09:22:38;;;;;;;12.57;12.15;;;2.90;99.90;;;;;;4250783;28;20088;-86
2023/01/28 09:24:58;;;;;;;11.60;11.15;;;2.80;99.90;;;;;;4247390;28;20063;-86
2023/01/28 09:27:18;;;;;;;12.18;11.65;;;2.80;99.90;;;;;;4244920;28;20261;-86
2023/01/28 09:29:38;;;;;;;12.02;11.27;;;2.80;99.90;;;;;;4248866;28;20452;-86
2023/01/28 09:31:58;;;;;;;13.25;12.55;;;2.90;99.90;;;;;;4238008;28;20051;-86
2023/01/28 09:55:31;;;;;;;13.02;12.52;;;3.70;99.90;;;;;;4295593;27;20361;-85
2023/01/28 10:01:10;;;;;;;11.25;10.93;;;3.80;99.90;;;;;;4291064;27;20168;-85
2023/01/28 10:03:56;;;;;;;12.68;12.27;;;3.80;99.90;;;;;;4272263;27;20046;-86
2023/01/28 10:06:16;;;;;;;10.77;10.27;;;3.90;99.90;;;;;;4270827;27;20046;-85
2023/01/28 10:08:41;;;;;;;9.50;9.10;;;4.10;99.90;;;;;;4256623;27;20083;-85
2023/01/28 10:11:22;;;;;;;9.93;9.60;;;4.20;99.90;;;;;;4256594;27;20119;-86
2023/01/28 10:14:12;;;;;;;8.80;8.60;;;4.10;99.90;;;;;;4270403;27;20041;-85
2023/01/28 10:16:56;;;;;;;9.80;9.45;;;4.20;99.90;;;;;;4271123;27;20045;-85
2023/01/28 10:19:22;;;;;;;;;;;4.40;99.90;;;;;;4266098;27;20096;-86
2023/01/28 10:22:15;;;;;;;10.77;10.30;;;4.50;99.90;;;;;;4264694;27;20140;-86
2023/01/28 10:24:40;;;;;;;10.00;9.60;;;4.50;99.90;;;;;;4202335;28;20311;-85
2023/01/28 10:27:00;;;;;;;10.55;10.20;;;4.30;99.90;;;;;;4216843;28;20051;-85
2023/01/28 10:29:30;;;;;;;10.65;10.15;;;4.40;99.90;;;;;;4215448;28;20077;-85
2023/01/28 10:31:59;;;;;;;11.18;10.68;;;4.60;99.90;;;;;;4203075;28;20051;-86
2023/01/28 10:34:20;;;;;;;13.48;12.57;;;4.70;99.90;;;;;;4196232;28;20082;-85
2023/01/28 10:36:41;;;;;;;12.05;11.35;;;4.80;99.90;;;;;;4201824;28;20047;-85
2023/01/28 10:39:01;;;;;;;11.73;11.02;;;5.00;99.90;;;;;;4200987;28;20260;-86
2023/01/28 10:41:22;;;;;;;11.38;10.88;;;5.10;99.90;;;;;;4203413;28;20104;-86
2023/01/28 10:43:42;;;;;;;11.02;10.55;;;4.90;99.90;;;;;;4200777;28;20398;-86
2023/01/28 10:46:04;;;;;;;10.63;10.15;;;5.00;99.90;;;;;;4198508;28;20120;-86
2023/01/28 10:48:38;;;;;;;11.73;11.02;;;5.00;99.90;;;;;;4200980;28;20156;-86
2023/01/28 10:51:04;;;;;;;;;;;5.00;99.90;;;;;;4201914;28;20094;-86
2023/01/28 10:53:44;;;;;;;9.35;9.18;;;4.70;99.90;;;;;;4203381;28;20119;-86
2023/01/28 10:56:12;;;;;;;10.10;9.80;;;4.60;99.90;;;;;;4203359;28;20247;-86
2023/01/28 10:58:35;;;;;;;9.90;9.48;;;4.60;99.90;;;;;;4190271;28;20256;-86
2023/01/28 11:01:06;;;;;;;10.15;9.80;;;4.80;99.90;;;;;;4229795;27;20246;-85
2023/01/28 11:03:28;;;;;;;10.65;10.18;;;5.30;99.90;;;;;;4254102;27;20111;-86
2023/01/28 11:05:54;;;;;;;9.40;9.13;;;5.50;99.90;;;;;;4253520;27;20235;-86
2023/01/28 11:08:16;;;;;;;10.30;9.65;;;5.70;99.90;;;;;;4254032;27;20050;-86
2023/01/28 11:10:37;;;;;;;10.32;9.57;;;6.10;99.90;;;;;;4237744;27;20043;-86
2023/01/28 11:12:59;;;;;;;8.77;8.38;;;5.60;99.90;;;;;;4227230;28;20082;-86
2023/01/28 11:15:19;;;;;;;9.27;8.88;;;5.70;99.90;;;;;;4225471;28;20141;-86
2023/01/28 11:17:54;;;;;;;9.43;9.02;;;5.80;99.90;;;;;;4236941;28;20063;-86
2023/01/28 11:20:24;;;;;;;9.32;8.82;;;6.10;99.90;;;;;;4240732;28;20381;-86
2023/01/28 11:22:45;;;;;;;9.30;9.10;;;6.00;99.90;;;;;;4238348;28;20106;-86
2023/01/28 11:25:31;;;;;;;8.43;8.18;;;5.70;99.90;;;;;;4225838;28;20365;-86
2023/01/28 11:27:52;;;;;;;11.23;10.73;;;5.60;99.90;;;;;;4240318;28;20054;-86
2023/01/28 11:30:19;;;;;;;9.93;9.52;;;5.50;99.90;;;;;;4224046;28;20255;-86
2023/01/28 11:32:40;;;;;;;18.25;16.38;;;5.60;99.90;;;;;;4236414;28;20111;-86
2023/01/28 11:35:00;;;;;;;12.18;11.48;;;5.80;99.90;;;;;;4241014;28;20043;-86
2023/01/28 11:37:22;;;;;;;9.85;9.63;;;6.10;99.90;;;;;;4240270;28;20403;-86
2023/01/28 11:39:42;;;;;;;9.95;9.55;;;6.30;99.90;;;;;;4228810;28;20042;-86
2023/01/28 11:42:10;;;;;;;9.45;9.15;;;6.00;99.90;;;;;;4242120;28;20046;-86
2023/01/28 11:44:30;;;;;;;11.35;10.93;;;6.20;99.90;;;;;;4226555;28;20273;-86
2023/01/28 11:47:20;;;;;;;8.40;8.10;;;6.40;99.90;;;;;;4244338;28;20107;-86
2023/01/28 11:49:48;;;;;;;10.70;9.88;;;6.10;99.90;;;;;;4230787;28;20111;-86
2023/01/28 11:52:41;;;;;;;8.63;8.32;;;5.90;99.90;;;;;;4240127;28;20038;-86
2023/01/28 11:55:36;;;;;;;7.60;7.47;;;5.90;99.90;;;;;;4207543;28;20056;-86
2023/01/28 11:58:27;;;;;;;8.95;8.60;;;5.80;99.90;;;;;;4235921;28;20059;-86
2023/01/28 12:00:56;;;;;;;9.27;8.88;;;5.90;99.90;;;;;;4241442;28;20126;-86
2023/01/28 12:03:37;;;;;;;9.32;8.98;;;5.80;99.90;;;;;;4227088;28;20055;-86
2023/01/28 12:06:23;;;;;;;8.77;8.57;;;5.80;99.90;;;;;;4239685;28;20231;-86
2023/01/28 12:09:10;;;;;;;8.90;8.70;;;6.00;99.90;;;;;;4243309;28;20056;-86
2023/01/28 12:14:27;;;;;;;9.27;8.98;;;6.20;99.90;;;;;;4239101;28;20047;-86
2023/01/28 12:17:10;;;;;;;9.18;8.88;;;6.30;99.90;;;;;;4235705;28;20462;-86
2023/01/28 12:19:45;;;;;;;9.40;9.05;;;6.50;99.90;;;;;;4219309;28;20084;-86
2023/01/28 12:22:39;;;;;;;18.98;17.13;;;6.60;99.90;;;;;;4238473;28;20055;-86
2023/01/28 12:25:45;;;;;;;12.13;11.63;;;6.60;99.90;;;;;;4239015;28;20050;-86
2023/01/28 12:28:14;;;;;;;10.65;10.13;;;6.60;99.90;;;;;;4174394;28;20076;-86
2023/01/28 12:30:34;;;;;;;10.65;10.25;;;6.40;99.90;;;;;;4177093;28;20439;-86
2023/01/28 12:33:14;;;;;;;12.77;11.98;;;6.40;99.90;;;;;;4192024;28;20078;-85
2023/01/28 12:35:55;;;;;;;11.02;10.52;;;6.40;99.90;;;;;;4175143;28;20060;-85
2023/01/28 12:38:33;;;;;;;15.30;14.20;;;5.80;99.90;;;;;;4193656;28;20283;-87
2023/01/28 12:41:07;;;;;;;16.63;15.10;;;;;;;;;;4192395;28;20056;-86
2023/01/28 12:43:39;;;;;;;9.30;9.20;;;;;;;;;;4192033;28;20139;-86
2023/01/28 12:46:10;;;;;;;11.27;10.67;;;;;;;;;;4175879;28;20056;-87
2023/01/28 12:48:37;;;;;;;11.98;11.48;;;;;;;;;;4175710;28;20181;-86
2023/01/28 12:50:59;;;;;;;11.07;10.57;;;;;;;;;;4175379;28;20311;-86
2023/01/28 12:53:32;;;;;;;11.05;10.55;;;;;;;;;;4195335;28;20108;-87
2023/01/28 12:56:00;;;;;;;12.82;12.23;;;;;;;;;;4190339;28;20075;-86
2023/01/28 12:58:38;;;;;;;10.82;10.32;;;;;;;;;;4192463;28;20236;-86
2023/01/28 13:01:01;;;;;;;11.18;10.65;;;;;;;;;;4192744;28;20405;-87
2023/01/28 13:03:28;;;;;;;11.10;10.88;;;;;;;;;;4240900;28;20238;-86
2023/01/28 13:05:50;;;;;;;11.10;10.25;;;;;;;;;;4240592;28;20055;-87
2023/01/28 13:08:17;;;;;;;10.07;9.60;;;;;;;;;;4241317;28;20043;-87
2023/01/28 13:10:42;;;;;;;9.88;9.48;;;;;;;;;;4240364;28;20101;-87
2023/01/28 13:13:03;;;;;;;11.40;10.93;;;;;;;;;;4237173;28;20243;-87
2023/01/28 13:15:24;;;;;;;11.75;11.25;;;;;;;;;;4237211;28;20053;-86
2023/01/28 13:18:13;;;;;;;11.45;10.95;;;;;;;;;;4234681;28;20050;-86
2023/01/28 13:20:37;;;;;;;10.57;10.07;;;;;;;;;;4234054;28;20047;-87
2023/01/28 13:22:57;;;;;;;;;;;;;;;;;;4222586;28;20083;-87
2023/01/28 13:25:22;;;;;;;9.80;9.50;;;;;;;;;;4239391;28;19938;-87
2023/01/28 13:27:53;;;;;;;11.13;10.43;;;;;;;;;;4237363;28;20433;-86
2023/01/28 13:30:27;;;;;;;10.68;10.27;;;;;;;;;;4237653;28;20039;-87
2023/01/28 13:32:54;;;;;;;11.13;10.70;;;;;;;;;;4239634;28;20085;-86
2023/01/28 13:35:27;;;;;;;11.60;11.15;;;;;;;;;;4238148;28;20074;-87
2023/01/28 13:37:50;;;;;;;11.65;11.25;;;;;;;;;;4243541;28;20051;-87
2023/01/28 13:40:13;;;;;;;12.10;11.40;;;;;;;;;;4228461;28;20243;-86
2023/01/28 13:42:33;;;;;;;10.63;10.20;;;;;;;;;;4240423;28;20266;-86